Time;durP1;ratioP1;P1;durP2;ratioP2;P2;SDS_P1;SDS_P2;PMS_P1;PMS_P2;Temp;Humidity;BMP_temperature;BMP_pressure;BME280_temperature;BME280_humidity;BME280_pressure;Samples;Min_cycle;Max_cycle;Signal;HPM_P1;HPM_P2
2023/08/14 00:00:58;;;;;;;5.93;3.80;;;19.60;99.90;;;;;;5033995;28;20479;-81
2023/08/14 00:03:23;;;;;;;6.35;3.47;;;19.50;99.90;;;;;;5034397;28;20025;-81
2023/08/14 00:05:49;;;;;;;5.93;3.70;;;19.30;99.90;;;;;;5033239;28;20044;-81
2023/08/14 00:08:16;;;;;;;5.90;3.75;;;19.20;99.90;;;;;;5034242;28;20480;-81
2023/08/14 00:10:42;;;;;;;8.90;3.78;;;19.20;99.90;;;;;;5032961;28;20026;-83
2023/08/14 00:13:07;;;;;;;4.20;3.80;;;19.20;99.90;;;;;;5033941;28;20036;-82
2023/08/14 00:15:33;;;;;;;8.90;4.15;;;19.20;99.90;;;;;;5033626;28;20095;-81
2023/08/14 00:17:59;;;;;;;11.65;4.90;;;19.20;99.90;;;;;;5033269;28;20032;-81
2023/08/14 00:20:24;;;;;;;8.07;4.25;;;19.20;99.90;;;;;;5033727;28;20100;-81
2023/08/14 00:22:50;;;;;;;4.18;3.58;;;19.20;99.90;;;;;;5033316;28;20026;-82
2023/08/14 00:25:15;;;;;;;7.13;4.22;;;19.10;99.90;;;;;;5033085;28;20045;-82
2023/08/14 00:27:41;;;;;;;7.07;4.03;;;19.10;99.90;;;;;;5033426;28;20026;-82
2023/08/14 00:30:07;;;;;;;5.97;4.15;;;19.40;99.90;;;;;;5033268;28;20045;-82
2023/08/14 00:32:33;;;;;;;8.63;4.80;;;19.10;99.90;;;;;;5032603;28;20473;-82
2023/08/14 00:34:58;;;;;;;7.90;4.28;;;19.60;99.90;;;;;;5033337;28;20084;-82
2023/08/14 00:37:39;;;;;;;10.05;5.13;;;19.20;99.90;;;;;;5033592;28;20025;-82
2023/08/14 00:40:07;;;;;;;8.25;4.68;;;19.00;99.90;;;;;;5033215;28;20040;-81
2023/08/14 00:42:32;;;;;;;4.40;3.85;;;19.00;99.90;;;;;;5033141;28;20022;-81
2023/08/14 00:44:58;;;;;;;10.00;4.72;;;19.10;99.90;;;;;;5033400;28;20440;-81
2023/08/14 00:47:24;;;;;;;10.18;4.35;;;19.00;99.90;;;;;;5032753;28;20469;-81
2023/08/14 00:49:50;;;;;;;9.35;4.68;;;18.90;99.90;;;;;;5032856;28;20026;-81
2023/08/14 00:52:15;;;;;;;6.47;4.38;;;18.90;99.90;;;;;;5033297;28;20048;-81
2023/08/14 00:54:41;;;;;;;9.05;4.45;;;18.90;99.90;;;;;;5032502;28;20076;-81
2023/08/14 00:57:07;;;;;;;5.97;4.50;;;18.90;99.90;;;;;;5032758;28;20031;-81
2023/08/14 00:59:33;;;;;;;5.35;4.85;;;19.20;99.90;;;;;;5033522;28;20030;-81
2023/08/14 01:01:59;;;;;;;9.68;4.40;;;18.90;99.90;;;;;;5032649;28;20033;-81
2023/08/14 01:04:25;;;;;;;11.43;4.45;;;18.90;99.90;;;;;;5033166;28;20037;-81
2023/08/14 01:06:50;;;;;;;7.80;4.78;;;19.10;99.90;;;;;;5031809;28;20040;-81
2023/08/14 01:09:16;;;;;;;7.68;4.22;;;18.80;99.90;;;;;;5032884;28;20067;-81
2023/08/14 01:12:16;;;;;;;8.43;4.75;;;18.80;99.90;;;;;;5032451;28;20052;-81
2023/08/14 01:14:43;;;;;;;7.28;4.18;;;18.80;99.90;;;;;;5032038;28;20029;-80
2023/08/14 01:17:13;;;;;;;8.73;4.80;;;18.80;99.90;;;;;;5032804;28;20535;-81
2023/08/14 01:19:41;;;;;;;8.50;5.47;;;18.80;99.90;;;;;;5032403;28;20029;-81
2023/08/14 01:22:42;;;;;;;9.48;5.53;;;18.70;99.90;;;;;;5032058;28;20092;-81
2023/08/14 01:25:23;;;;;;;;;;;18.70;99.90;;;;;;5033042;28;20037;-80
2023/08/14 01:27:49;;;;;;;;;;;18.70;99.90;;;;;;5032688;28;20545;-80
2023/08/14 01:30:14;;;;;;;5.25;4.47;;;18.80;99.90;;;;;;5031686;28;19921;-82
2023/08/14 01:32:40;;;;;;;7.07;5.32;;;19.00;99.90;;;;;;5032331;28;20022;-82
2023/08/14 01:35:06;;;;;;;9.05;4.95;;;18.60;99.90;;;;;;5032107;28;20029;-82
2023/08/14 01:37:46;;;;;;;9.88;5.47;;;18.60;99.90;;;;;;5032326;28;20029;-82
2023/08/14 01:40:26;;;;;;;4.82;4.18;;;18.60;99.90;;;;;;5032441;28;20052;-82
2023/08/14 01:43:07;;;;;;;7.13;4.95;;;18.60;99.90;;;;;;5031164;28;20025;-82
2023/08/14 01:45:34;;;;;;;10.07;5.15;;;18.60;99.90;;;;;;5031882;28;20565;-82
2023/08/14 01:48:01;;;;;;;6.65;4.45;;;18.60;99.90;;;;;;5032185;28;20104;-82
2023/08/14 01:50:29;;;;;;;6.60;4.82;;;18.60;99.90;;;;;;5032027;28;20372;-82
2023/08/14 01:52:55;;;;;;;6.72;4.82;;;18.50;99.90;;;;;;5032044;28;20079;-82
2023/08/14 01:55:24;;;;;;;8.20;5.03;;;18.60;99.90;;;;;;5032013;28;20468;-82
2023/08/14 01:57:50;;;;;;;4.82;4.30;;;18.50;99.90;;;;;;5031210;28;20033;-82
2023/08/14 02:00:15;;;;;;;6.20;5.13;;;18.60;99.90;;;;;;5031960;28;20076;-82
2023/08/14 02:02:41;;;;;;;7.90;4.82;;;18.60;99.90;;;;;;5031783;28;20065;-82
2023/08/14 02:05:06;;;;;;;7.00;4.63;;;18.50;99.90;;;;;;5031517;28;20033;-82
2023/08/14 02:07:32;;;;;;;9.50;5.10;;;18.50;99.90;;;;;;5030877;28;20538;-82
2023/08/14 02:09:57;;;;;;;6.28;4.70;;;18.50;99.90;;;;;;5031803;28;20071;-82
2023/08/14 02:12:23;;;;;;;6.32;4.55;;;18.40;99.90;;;;;;5031173;28;20017;-82
2023/08/14 02:14:48;;;;;;;5.32;4.65;;;18.40;99.90;;;;;;5031713;28;20040;-82
2023/08/14 02:17:14;;;;;;;7.10;4.40;;;18.40;99.90;;;;;;5031346;28;20100;-82
2023/08/14 02:19:40;;;;;;;9.27;4.82;;;18.40;99.90;;;;;;5031497;28;20111;-82
2023/08/14 02:22:05;;;;;;;7.65;3.95;;;18.30;99.90;;;;;;5031759;28;20037;-82
2023/08/14 02:24:31;;;;;;;5.80;4.50;;;19.10;99.90;;;;;;5030721;28;20036;-82
2023/08/14 02:26:56;;;;;;;7.53;5.15;;;18.60;99.90;;;;;;5031803;28;20025;-82
2023/08/14 02:29:22;;;;;;;6.45;4.20;;;18.30;99.90;;;;;;5031757;28;20152;-82
2023/08/14 02:31:51;;;;;;;8.65;4.43;;;18.30;99.90;;;;;;5031219;28;20588;-82
2023/08/14 02:35:00;;;;;;;4.53;4.10;;;17.60;99.90;;;;;;5031731;28;20479;-82
2023/08/14 02:37:26;;;;;;;6.93;4.25;;;18.30;99.90;;;;;;4951284;29;20059;-82
2023/08/14 02:39:52;;;;;;;6.97;4.60;;;18.70;99.90;;;;;;5018998;28;20095;-82
2023/08/14 02:42:19;;;;;;;9.60;4.80;;;18.30;99.90;;;;;;5031774;28;20049;-82
2023/08/14 02:44:44;;;;;;;9.60;4.35;;;18.30;99.90;;;;;;5031434;28;20534;-82
2023/08/14 02:47:10;;;;;;;6.95;4.85;;;18.30;99.90;;;;;;5030979;28;20100;-82
2023/08/14 02:49:36;;;;;;;6.03;4.28;;;18.20;99.90;;;;;;5031383;28;20469;-82
2023/08/14 02:52:01;;;;;;;6.93;4.53;;;18.20;99.90;;;;;;5031733;28;20021;-82
2023/08/14 02:54:27;;;;;;;6.03;3.90;;;18.20;99.90;;;;;;5030695;28;20029;-82
2023/08/14 02:56:53;;;;;;;6.30;4.32;;;18.20;99.90;;;;;;5031138;28;20068;-82
2023/08/14 02:59:18;;;;;;;9.13;4.15;;;18.20;99.90;;;;;;5031482;28;20037;-82
2023/08/14 03:01:44;;;;;;;5.10;3.95;;;18.20;99.90;;;;;;5030345;28;20051;-82
2023/08/14 03:04:10;;;;;;;5.57;4.10;;;18.20;99.90;;;;;;5031288;28;20484;-82
2023/08/14 03:06:35;;;;;;;4.75;3.65;;;18.20;99.90;;;;;;5030345;28;20041;-82
2023/08/14 03:09:02;;;;;;;6.68;4.45;;;18.20;99.90;;;;;;5031531;28;20017;-82
2023/08/14 03:11:27;;;;;;;6.93;4.00;;;18.20;99.90;;;;;;5031512;28;20096;-81
2023/08/14 03:13:53;;;;;;;5.65;4.03;;;18.90;99.90;;;;;;5030737;28;20072;-81
2023/08/14 03:16:19;;;;;;;5.05;4.18;;;18.20;99.90;;;;;;5031365;28;20063;-82
2023/08/14 03:18:44;;;;;;;6.28;3.97;;;18.10;99.90;;;;;;5031607;28;20032;-82
2023/08/14 03:21:10;;;;;;;7.75;4.32;;;18.20;99.90;;;;;;5034594;28;20022;-82
2023/08/14 03:23:36;;;;;;;8.05;4.20;;;18.10;99.90;;;;;;5034943;28;20374;-82
2023/08/14 03:26:02;;;;;;;7.10;4.38;;;18.10;99.90;;;;;;5034798;28;20037;-82
2023/08/14 03:28:28;;;;;;;5.80;4.07;;;18.10;99.90;;;;;;5034219;28;20386;-82
2023/08/14 03:30:54;;;;;;;4.85;4.07;;;18.10;99.90;;;;;;5034424;28;20132;-82
2023/08/14 03:33:19;;;;;;;5.70;4.57;;;18.00;99.90;;;;;;5034747;28;20030;-81
2023/08/14 03:35:45;;;;;;;6.60;4.05;;;18.00;99.90;;;;;;5033996;28;20025;-82
2023/08/14 03:38:11;;;;;;;5.03;4.53;;;18.90;99.90;;;;;;5034379;28;20473;-82
2023/08/14 03:40:37;;;;;;;5.55;4.38;;;18.00;99.90;;;;;;5034372;28;20026;-82
2023/08/14 03:43:02;;;;;;;7.93;4.60;;;18.00;99.90;;;;;;5033911;28;20025;-82
2023/08/14 03:45:28;;;;;;;4.38;3.80;;;18.00;99.90;;;;;;5034402;28;20040;-82
2023/08/14 03:47:54;;;;;;;5.45;3.30;;;18.00;99.90;;;;;;5034321;28;20025;-82
2023/08/14 03:50:19;;;;;;;5.30;3.72;;;18.30;99.90;;;;;;5033930;28;20116;-82
2023/08/14 03:52:45;;;;;;;5.07;3.97;;;18.00;99.90;;;;;;5034035;28;20025;-82
2023/08/14 03:55:10;;;;;;;9.38;4.18;;;18.00;99.90;;;;;;5034386;28;20030;-82
2023/08/14 03:57:36;;;;;;;7.13;4.35;;;17.90;99.90;;;;;;5033201;28;20036;-82
2023/08/14 04:00:02;;;;;;;4.70;3.95;;;17.90;99.90;;;;;;5034248;28;20033;-82
2023/08/14 04:02:28;;;;;;;8.15;4.90;;;17.90;99.90;;;;;;5034071;28;20053;-82
2023/08/14 04:04:54;;;;;;;7.45;4.28;;;17.90;99.90;;;;;;5033130;28;20072;-82
2023/08/14 04:07:19;;;;;;;6.55;4.75;;;17.90;99.90;;;;;;5034149;28;20032;-82
2023/08/14 04:09:45;;;;;;;8.60;4.65;;;17.90;99.90;;;;;;5033061;28;20030;-82
2023/08/14 04:12:10;;;;;;;6.15;4.35;;;17.90;99.90;;;;;;5034115;28;20029;-82
2023/08/14 04:14:36;;;;;;;6.00;4.20;;;17.90;99.90;;;;;;5033535;28;20041;-82
2023/08/14 04:17:02;;;;;;;10.32;4.78;;;17.90;99.90;;;;;;5033073;28;20021;-82
2023/08/14 04:19:27;;;;;;;7.25;4.43;;;18.10;99.90;;;;;;5033678;28;20065;-82
2023/08/14 04:21:53;;;;;;;9.75;5.70;;;17.90;99.90;;;;;;5033506;28;20018;-82
2023/08/14 04:24:18;;;;;;;8.15;4.82;;;17.90;99.90;;;;;;5032938;28;20034;-82
2023/08/14 04:26:44;;;;;;;10.85;5.30;;;17.80;99.90;;;;;;5033463;28;20101;-82
2023/08/14 04:29:10;;;;;;;7.22;5.32;;;17.80;99.90;;;;;;5033530;28;20528;-81
2023/08/14 04:31:39;;;;;;;6.80;4.60;;;17.80;99.90;;;;;;5031613;28;20112;-82
2023/08/14 04:34:06;;;;;;;8.95;4.65;;;17.80;99.90;;;;;;5033748;28;20060;-82
2023/08/14 04:36:34;;;;;;;13.60;5.80;;;17.90;99.90;;;;;;5033454;28;20026;-81
2023/08/14 04:39:00;;;;;;;12.95;5.60;;;17.80;99.90;;;;;;5032841;28;20097;-82
2023/08/14 04:41:27;;;;;;;10.85;5.72;;;17.80;99.90;;;;;;5033758;28;20067;-81
2023/08/14 04:43:53;;;;;;;13.18;6.05;;;17.80;99.90;;;;;;5033040;28;20026;-81
2023/08/14 04:46:36;;;;;;;8.82;5.47;;;17.80;99.90;;;;;;5032724;28;20064;-82
2023/08/14 04:49:03;;;;;;;9.70;5.65;;;17.80;99.90;;;;;;5033526;28;20041;-82
2023/08/14 04:51:29;;;;;;;9.40;6.47;;;17.80;99.90;;;;;;5032992;28;20113;-81
2023/08/14 04:53:56;;;;;;;9.52;6.03;;;17.90;99.90;;;;;;5032545;28;20381;-82
2023/08/14 04:56:22;;;;;;;10.02;6.75;;;17.80;99.90;;;;;;5033145;28;20028;-82
2023/08/14 04:58:47;;;;;;;7.57;5.90;;;18.10;99.90;;;;;;5032676;28;20048;-82
2023/08/14 05:01:13;;;;;;;8.98;6.53;;;18.00;99.90;;;;;;5032300;28;20061;-82
2023/08/14 05:03:39;;;;;;;14.40;7.18;;;17.80;99.90;;;;;;5032818;28;20388;-82
2023/08/14 05:06:05;;;;;;;10.10;6.88;;;17.80;99.90;;;;;;5032365;28;20048;-82
2023/08/14 05:08:31;;;;;;;11.85;6.88;;;17.80;99.90;;;;;;5032702;28;20017;-81
2023/08/14 05:10:56;;;;;;;8.85;6.72;;;18.60;99.90;;;;;;5032823;28;20520;-82
2023/08/14 05:13:22;;;;;;;8.23;6.75;;;17.80;99.90;;;;;;5032084;28;20493;-82
2023/08/14 05:15:50;;;;;;;10.02;7.72;;;17.80;99.90;;;;;;5032320;28;20504;-81
2023/08/14 05:18:16;;;;;;;7.63;6.28;;;17.90;99.90;;;;;;5032629;28;20426;-82
2023/08/14 05:20:48;;;;;;;8.13;6.70;;;17.90;99.90;;;;;;5032016;28;20103;-82
2023/08/14 05:23:15;;;;;;;9.90;6.70;;;17.90;99.90;;;;;;5032609;28;20033;-82
2023/08/14 05:25:44;;;;;;;12.63;6.30;;;18.00;99.90;;;;;;5032025;28;20034;-82
2023/08/14 05:28:11;;;;;;;10.30;6.43;;;18.00;99.90;;;;;;5031626;28;20030;-82
2023/08/14 05:30:36;;;;;;;9.38;6.72;;;17.90;99.90;;;;;;5031904;28;20806;-81
2023/08/14 05:33:03;;;;;;;8.82;6.43;;;18.00;99.90;;;;;;5032611;28;20017;-81
2023/08/14 05:35:29;;;;;;;10.88;6.28;;;18.00;99.90;;;;;;5031097;28;20037;-81
2023/08/14 05:37:56;;;;;;;7.18;6.10;;;18.00;99.90;;;;;;5032387;28;20281;-81
2023/08/14 05:40:23;;;;;;;11.80;6.55;;;18.00;99.90;;;;;;5032275;28;20053;-81
2023/08/14 05:43:10;;;;;;;10.90;7.07;;;18.50;99.90;;;;;;5031500;28;20053;-80
2023/08/14 05:45:44;;;;;;;12.00;7.03;;;18.10;99.90;;;;;;5032076;28;20033;-80
2023/08/14 05:48:10;;;;;;;12.50;7.43;;;18.00;99.90;;;;;;5031817;28;20033;-80
2023/08/14 05:50:37;;;;;;;9.52;6.55;;;18.00;99.90;;;;;;5031787;28;20064;-80
2023/08/14 05:53:04;;;;;;;8.93;7.00;;;18.00;99.90;;;;;;5032069;28;20033;-81
2023/08/14 05:55:35;;;;;;;9.68;6.72;;;18.00;99.90;;;;;;5031180;28;20116;-80
2023/08/14 05:58:02;;;;;;;;;;;18.00;99.90;;;;;;5032595;28;20025;-81
2023/08/14 06:00:28;;;;;;;7.82;6.80;;;18.10;99.90;;;;;;5031920;28;20560;-81
2023/08/14 06:02:54;;;;;;;9.73;6.72;;;18.40;99.90;;;;;;5031298;28;20132;-80
2023/08/14 06:05:20;;;;;;;14.00;7.10;;;18.10;99.90;;;;;;5031993;28;20108;-82
2023/08/14 06:07:50;;;;;;;9.65;7.97;;;18.10;99.90;;;;;;5031871;28;20022;-80
2023/08/14 06:10:17;;;;;;;12.77;7.47;;;18.10;99.90;;;;;;5031715;28;20022;-82
2023/08/14 06:12:44;;;;;;;8.95;6.75;;;18.10;99.90;;;;;;5031833;28;20061;-80
2023/08/14 06:15:11;;;;;;;8.25;7.28;;;18.30;99.90;;;;;;5032021;28;20442;-82
2023/08/14 06:17:36;;;;;;;11.85;7.90;;;18.90;99.90;;;;;;5030898;28;20091;-82
2023/08/14 06:20:03;;;;;;;10.20;8.50;;;18.10;99.90;;;;;;5031901;28;20458;-82
2023/08/14 06:22:29;;;;;;;13.38;7.50;;;18.10;99.90;;;;;;5031843;28;20079;-81
2023/08/14 06:24:54;;;;;;;11.98;7.18;;;18.70;99.90;;;;;;5030717;28;20041;-81
2023/08/14 06:27:20;;;;;;;8.60;6.72;;;18.10;99.90;;;;;;5031952;28;20061;-81
2023/08/14 06:29:45;;;;;;;8.10;7.30;;;18.20;99.90;;;;;;5031353;28;20128;-81
2023/08/14 06:32:11;;;;;;;11.55;7.20;;;18.20;99.90;;;;;;5031009;28;20025;-81
2023/08/14 06:34:37;;;;;;;8.48;6.97;;;18.20;99.90;;;;;;5031208;28;20025;-81
2023/08/14 06:37:02;;;;;;;7.43;6.68;;;18.20;99.90;;;;;;5031815;28;20025;-81
2023/08/14 06:39:29;;;;;;;11.88;6.70;;;18.30;99.90;;;;;;5031187;28;20060;-81
2023/08/14 06:41:54;;;;;;;10.90;6.85;;;18.50;99.90;;;;;;5031572;28;20385;-81
2023/08/14 06:44:20;;;;;;;9.20;6.53;;;18.50;99.90;;;;;;5031726;28;20033;-81
2023/08/14 06:46:45;;;;;;;9.40;6.43;;;18.80;99.90;;;;;;5030543;28;20377;-81
2023/08/14 06:49:11;;;;;;;9.38;7.15;;;18.30;99.90;;;;;;5031184;28;20040;-81
2023/08/14 06:51:38;;;;;;;11.18;6.82;;;18.30;99.90;;;;;;5030711;28;20025;-81
2023/08/14 06:54:04;;;;;;;12.63;7.35;;;18.40;99.90;;;;;;5033074;28;20064;-81
2023/08/14 06:56:30;;;;;;;12.05;6.72;;;18.30;99.90;;;;;;5035073;28;20022;-81
2023/08/14 06:58:56;;;;;;;7.25;6.00;;;18.40;99.90;;;;;;5034552;28;20044;-81
2023/08/14 07:01:22;;;;;;;12.75;6.47;;;18.30;99.90;;;;;;5035236;28;20108;-81
2023/08/14 07:03:48;;;;;;;9.32;5.90;;;18.30;99.90;;;;;;5034867;28;20055;-81
2023/08/14 07:06:13;;;;;;;8.93;5.97;;;18.40;99.90;;;;;;5034313;28;20041;-81
2023/08/14 07:08:39;;;;;;;7.35;6.35;;;18.40;99.90;;;;;;5035287;28;20017;-81
2023/08/14 07:11:04;;;;;;;7.63;5.43;;;18.40;99.90;;;;;;5035201;28;20537;-81
2023/08/14 07:13:30;;;;;;;8.90;6.00;;;18.40;99.90;;;;;;5034252;28;20022;-81
2023/08/14 07:15:56;;;;;;;10.80;6.13;;;18.40;99.90;;;;;;5035063;28;20057;-81
2023/08/14 07:18:21;;;;;;;7.13;5.35;;;18.50;99.90;;;;;;5034857;28;20350;-81
2023/08/14 07:20:47;;;;;;;11.25;5.97;;;18.80;99.90;;;;;;5034131;28;20049;-81
2023/08/14 07:23:15;;;;;;;6.70;5.60;;;18.60;99.90;;;;;;5035000;28;20108;-81
2023/08/14 07:25:41;;;;;;;8.10;5.43;;;18.70;99.90;;;;;;5034215;28;20033;-81
2023/08/14 07:28:06;;;;;;;6.30;4.95;;;18.70;99.90;;;;;;5034064;28;20029;-81
2023/08/14 07:30:32;;;;;;;6.47;4.10;;;18.80;99.90;;;;;;5034395;28;20471;-81
2023/08/14 07:32:58;;;;;;;4.75;4.03;;;18.90;99.90;;;;;;5034753;28;20032;-81
2023/08/14 07:35:23;;;;;;;6.30;3.90;;;18.90;99.90;;;;;;5034301;28;20495;-81
2023/08/14 07:37:49;;;;;;;8.07;4.47;;;19.00;99.90;;;;;;5034303;28;20480;-81
2023/08/14 07:40:14;;;;;;;4.82;4.05;;;19.00;99.90;;;;;;5034734;28;20477;-81
2023/08/14 07:42:40;;;;;;;4.75;4.35;;;19.60;99.90;;;;;;5033490;28;20025;-81
2023/08/14 07:45:06;;;;;;;6.47;3.65;;;19.10;99.90;;;;;;5034379;28;20038;-81
2023/08/14 07:47:32;;;;;;;4.13;3.45;;;19.10;99.90;;;;;;5033860;28;20486;-81
2023/08/14 07:49:57;;;;;;;4.28;3.88;;;19.10;99.90;;;;;;5033512;28;20036;-81
2023/08/14 07:52:24;;;;;;;4.97;4.28;;;19.10;99.90;;;;;;5034441;28;20036;-81
2023/08/14 07:54:50;;;;;;;6.40;4.70;;;19.20;99.90;;;;;;5033125;28;20036;-81
2023/08/14 07:57:16;;;;;;;7.05;4.95;;;19.30;99.90;;;;;;5034312;28;20030;-81
2023/08/14 07:59:41;;;;;;;4.85;4.40;;;19.20;99.90;;;;;;5033759;28;20112;-81
2023/08/14 08:02:07;;;;;;;6.78;4.35;;;19.30;99.90;;;;;;5033219;28;20037;-81
2023/08/14 08:04:36;;;;;;;4.25;3.85;;;20.10;99.90;;;;;;5033116;28;20049;-81
2023/08/14 08:07:05;;;;;;;6.32;4.47;;;19.30;99.90;;;;;;5033523;28;20100;-81
2023/08/14 08:09:31;;;;;;;4.45;4.00;;;19.40;99.90;;;;;;5032959;28;20101;-81
2023/08/14 08:11:57;;;;;;;10.88;4.90;;;19.70;99.90;;;;;;5033729;28;20030;-81
2023/08/14 08:14:23;;;;;;;5.40;4.05;;;19.50;99.90;;;;;;5033825;28;20036;-81
2023/08/14 08:16:51;;;;;;;4.72;3.83;;;19.50;99.90;;;;;;5032488;28;20025;-81
2023/08/14 08:19:17;;;;;;;4.90;3.40;;;19.70;99.90;;;;;;5033866;28;20112;-82
2023/08/14 08:21:42;;;;;;;3.60;2.92;;;19.60;99.90;;;;;;5033456;28;20057;-81
2023/08/14 08:24:08;;;;;;;5.35;3.65;;;19.60;99.90;;;;;;5032948;28;20104;-81
2023/08/14 08:26:34;;;;;;;6.57;3.83;;;19.80;99.90;;;;;;5033274;28;20036;-81
2023/08/14 08:29:00;;;;;;;6.35;3.10;;;20.10;99.90;;;;;;5033142;28;20026;-81
2023/08/14 08:31:26;;;;;;;3.13;2.83;;;19.80;99.90;;;;;;5032501;28;20567;-81
2023/08/14 08:33:51;;;;;;;6.40;3.13;;;19.80;99.90;;;;;;5033224;28;20044;-81
2023/08/14 08:36:17;;;;;;;11.32;3.70;;;19.90;99.90;;;;;;5033481;28;20108;-81
2023/08/14 08:38:44;;;;;;;6.45;3.10;;;20.10;99.90;;;;;;5032399;28;20029;-81
2023/08/14 08:41:41;;;;;;;6.63;2.90;;;20.00;99.90;;;;;;5032972;28;20385;-81
2023/08/14 08:44:15;;;;;;;8.02;3.17;;;20.00;99.90;;;;;;5015459;28;20050;-82
2023/08/14 08:46:51;;;;;;;4.20;2.80;;;20.00;99.90;;;;;;5032828;28;20477;-81
2023/08/14 08:49:17;;;;;;;7.82;3.47;;;20.10;99.90;;;;;;5033407;28;20025;-81
2023/08/14 08:51:44;;;;;;;6.20;3.33;;;20.20;99.90;;;;;;5032048;28;20026;-81
2023/08/14 08:54:12;;;;;;;7.43;3.55;;;20.20;99.90;;;;;;5032742;28;20531;-81
2023/08/14 08:56:38;;;;;;;8.18;2.97;;;20.30;99.90;;;;;;5032748;28;20104;-81
2023/08/14 08:59:04;;;;;;;10.15;3.35;;;20.30;99.90;;;;;;5032416;28;20108;-81
2023/08/14 09:01:30;;;;;;;7.50;3.20;;;20.40;99.90;;;;;;5032706;28;20083;-81
2023/08/14 09:03:55;;;;;;;6.75;2.80;;;20.40;99.90;;;;;;5033158;28;20026;-81
2023/08/14 09:06:21;;;;;;;6.78;3.35;;;20.40;99.90;;;;;;5032104;28;20026;-81
2023/08/14 09:08:48;;;;;;;10.63;3.67;;;20.40;99.90;;;;;;5032379;28;20117;-81
2023/08/14 09:11:14;;;;;;;9.57;3.55;;;20.50;99.90;;;;;;5032797;28;20473;-81
2023/08/14 09:13:40;;;;;;;6.25;3.60;;;20.60;99.90;;;;;;5031616;28;20034;-81
2023/08/14 09:16:05;;;;;;;7.72;2.80;;;20.60;99.90;;;;;;5032453;28;20108;-81
2023/08/14 09:18:31;;;;;;;6.65;2.78;;;20.60;99.90;;;;;;5032507;28;20389;-81
2023/08/14 09:20:57;;;;;;;8.00;3.67;;;20.70;99.90;;;;;;5032019;28;20036;-82
2023/08/14 09:23:23;;;;;;;9.07;3.20;;;20.70;99.90;;;;;;5032577;28;20026;-81
2023/08/14 09:25:50;;;;;;;5.40;2.90;;;20.70;99.90;;;;;;5032295;28;20091;-81
2023/08/14 09:28:17;;;;;;;8.27;3.53;;;20.80;99.90;;;;;;5031760;28;20427;-81
2023/08/14 09:30:43;;;;;;;6.22;3.30;;;20.80;99.90;;;;;;5031878;28;20564;-81
2023/08/14 09:33:10;;;;;;;9.80;3.53;;;20.80;99.90;;;;;;5032154;28;20053;-81
2023/08/14 09:35:37;;;;;;;3.95;3.28;;;21.60;99.90;;;;;;5031280;28;20041;-81
2023/08/14 09:38:03;;;;;;;6.88;3.20;;;20.90;99.90;;;;;;5032835;28;20029;-82
2023/08/14 09:40:30;;;;;;;7.43;3.42;;;20.90;99.90;;;;;;5031336;28;20029;-81
2023/08/14 09:42:56;;;;;;;4.00;2.70;;;21.00;99.90;;;;;;5032235;28;20435;-81
2023/08/14 09:45:27;;;;;;;4.15;2.20;;;21.10;99.90;;;;;;5032115;28;20037;-81
2023/08/14 09:48:00;;;;;;;9.05;3.03;;;21.10;99.90;;;;;;5031206;28;20106;-82
2023/08/14 09:50:29;;;;;;;11.70;3.08;;;21.10;99.90;;;;;;5032087;28;20027;-82
2023/08/14 09:52:59;;;;;;;8.82;3.05;;;21.10;99.90;;;;;;5032098;28;20120;-81
2023/08/14 09:55:29;;;;;;;5.95;2.30;;;21.20;99.90;;;;;;5031610;28;20043;-82
2023/08/14 09:57:56;;;;;;;8.48;2.85;;;21.10;99.90;;;;;;5031772;28;20040;-81
2023/08/14 10:00:22;;;;;;;3.50;2.20;;;21.40;99.90;;;;;;5032090;28;20017;-81
2023/08/14 10:02:48;;;;;;;5.63;2.45;;;21.40;99.90;;;;;;5030887;28;20057;-81
2023/08/14 10:05:15;;;;;;;5.43;2.03;;;21.30;99.90;;;;;;5032246;28;20037;-82
2023/08/14 10:07:43;;;;;;;4.55;1.83;;;21.40;99.90;;;;;;5031729;28;20029;-82
2023/08/14 10:10:13;;;;;;;3.40;1.70;;;21.30;99.90;;;;;;5031262;28;20026;-82
2023/08/14 10:12:57;;;;;;;8.25;2.42;;;22.10;99.90;;;;;;5031509;28;20022;-82
2023/08/14 10:15:30;;;;;;;4.20;1.70;;;21.40;99.90;;;;;;5031816;28;20033;-82
2023/08/14 10:17:59;;;;;;;6.45;2.35;;;21.40;99.90;;;;;;5031592;28;20033;-81
2023/08/14 10:20:25;;;;;;;4.70;2.35;;;21.40;99.90;;;;;;5031946;28;20030;-82
2023/08/14 10:22:52;;;;;;;5.13;1.92;;;21.60;99.90;;;;;;5030885;28;20049;-82
2023/08/14 10:25:20;;;;;;;6.97;2.20;;;21.40;99.90;;;;;;5031703;28;20037;-82
2023/08/14 10:27:46;;;;;;;7.93;2.75;;;21.50;99.90;;;;;;5031384;28;20053;-82
2023/08/14 10:30:12;;;;;;;5.35;2.75;;;21.50;99.90;;;;;;5034323;28;20572;-82
2023/08/14 10:32:40;;;;;;;7.47;2.45;;;21.60;99.90;;;;;;5035431;28;20028;-82
2023/08/14 10:35:07;;;;;;;3.50;1.90;;;21.60;99.90;;;;;;5035687;28;20036;-81
2023/08/14 10:37:43;;;;;;;5.82;1.73;;;21.60;99.90;;;;;;5034873;28;20026;-81
2023/08/14 10:40:17;;;;;;;11.30;3.15;;;21.60;99.90;;;;;;5035649;28;20029;-81
2023/08/14 10:43:00;;;;;;;4.90;1.50;;;21.70;99.90;;;;;;5035381;28;20113;-81
2023/08/14 10:45:27;;;;;;;2.40;1.35;;;21.80;99.90;;;;;;5034679;28;20124;-81
2023/08/14 10:47:59;;;;;;;3.10;1.58;;;21.90;99.90;;;;;;5035857;28;20029;-81
2023/08/14 10:50:26;;;;;;;4.75;1.10;;;21.80;99.90;;;;;;5035421;28;20029;-81
2023/08/14 10:52:53;;;;;;;4.43;1.65;;;21.80;99.90;;;;;;5034562;28;20457;-81
2023/08/14 10:55:46;;;;;;;3.78;1.52;;;21.80;99.90;;;;;;5035383;28;20029;-81
2023/08/14 10:58:35;;;;;;;6.40;2.00;;;21.90;99.90;;;;;;5034711;28;20029;-81
2023/08/14 11:01:02;;;;;;;4.18;1.70;;;21.90;99.90;;;;;;5035430;28;20036;-81
2023/08/14 11:03:30;;;;;;;3.75;1.65;;;22.00;99.90;;;;;;5035190;28;20438;-82
2023/08/14 11:05:56;;;;;;;3.85;2.35;;;22.00;99.90;;;;;;5034274;28;20045;-81
2023/08/14 11:08:22;;;;;;;5.32;2.00;;;22.00;99.90;;;;;;5035118;28;20029;-82
2023/08/14 11:10:49;;;;;;;4.72;1.88;;;22.40;99.90;;;;;;5034915;28;20189;-82
2023/08/14 11:13:15;;;;;;;6.57;1.70;;;22.00;99.90;;;;;;5034620;28;20026;-82
2023/08/14 11:15:42;;;;;;;6.90;2.20;;;22.00;99.90;;;;;;5034936;28;20433;-82
2023/08/14 11:18:12;;;;;;;6.93;2.22;;;22.10;99.90;;;;;;5035190;28;20088;-82
2023/08/14 11:20:41;;;;;;;5.90;1.63;;;22.10;99.90;;;;;;5034249;28;20095;-82
2023/08/14 11:23:07;;;;;;;3.65;1.40;;;22.10;99.90;;;;;;5034981;28;20477;-82
2023/08/14 11:25:34;;;;;;;5.20;1.98;;;22.10;99.90;;;;;;5034715;28;20061;-82
2023/08/14 11:27:59;;;;;;;5.65;1.67;;;22.10;99.90;;;;;;5034052;28;20021;-82
2023/08/14 11:30:31;;;;;;;4.53;2.53;;;21.90;99.90;;;;;;5034482;28;20397;-82
2023/08/14 11:32:57;;;;;;;9.15;2.42;;;22.10;99.90;;;;;;5034119;28;20045;-82
2023/08/14 11:35:26;;;;;;;4.85;2.55;;;22.10;99.90;;;;;;5034720;28;20459;-82
2023/08/14 11:37:51;;;;;;;2.55;1.45;;;22.20;99.90;;;;;;5034288;28;20414;-82
2023/08/14 11:40:17;;;;;;;3.72;1.50;;;22.30;99.90;;;;;;5033662;28;20108;-82
2023/08/14 11:42:43;;;;;;;7.65;2.13;;;22.30;99.90;;;;;;5034503;28;20028;-80
2023/08/14 11:45:09;;;;;;;4.38;2.38;;;22.40;99.90;;;;;;5034676;28;20462;-82
2023/08/14 11:47:44;;;;;;;4.25;1.70;;;22.40;99.90;;;;;;5033813;28;20033;-82
2023/08/14 11:50:11;;;;;;;3.90;1.70;;;22.40;99.90;;;;;;5034441;28;20438;-82
2023/08/14 11:52:37;;;;;;;3.80;1.77;;;22.40;99.90;;;;;;5034168;28;20186;-82
2023/08/14 11:55:03;;;;;;;2.95;1.80;;;22.40;99.90;;;;;;5033736;28;20026;-82
2023/08/14 11:57:31;;;;;;;3.50;1.70;;;22.50;99.90;;;;;;5034175;28;20053;-82
2023/08/14 11:59:58;;;;;;;4.97;2.08;;;22.50;99.90;;;;;;5034391;28;20112;-82
2023/08/14 12:02:26;;;;;;;5.30;1.77;;;23.10;99.90;;;;;;5033732;28;20029;-82
2023/08/14 12:04:56;;;;;;;5.90;2.15;;;22.60;99.90;;;;;;5033785;28;20037;-82
2023/08/14 12:07:22;;;;;;;4.20;1.60;;;22.60;99.90;;;;;;5034218;28;20025;-82
2023/08/14 12:09:48;;;;;;;3.65;1.60;;;22.40;99.90;;;;;;5032957;28;20710;-82
2023/08/14 12:12:14;;;;;;;4.35;1.77;;;22.90;99.90;;;;;;5033819;28;20025;-82
2023/08/14 12:14:42;;;;;;;5.25;2.03;;;22.60;99.90;;;;;;5033694;28;20029;-82
2023/08/14 12:17:10;;;;;;;8.07;2.35;;;22.70;99.90;;;;;;5033257;28;20030;-82
2023/08/14 12:19:36;;;;;;;6.93;2.83;;;22.90;99.90;;;;;;5033376;28;20469;-82
2023/08/14 12:22:02;;;;;;;4.18;1.80;;;22.80;99.90;;;;;;5033481;28;20029;-82
2023/08/14 12:24:34;;;;;;;3.80;1.65;;;22.80;99.90;;;;;;5033356;28;20029;-82
2023/08/14 12:27:01;;;;;;;5.55;2.00;;;22.80;99.90;;;;;;5033659;28;20040;-81
2023/08/14 12:29:28;;;;;;;5.65;2.33;;;22.90;99.90;;;;;;5032804;28;20136;-82
2023/08/14 12:31:53;;;;;;;4.95;1.73;;;22.90;99.90;;;;;;5033740;28;20072;-82
2023/08/14 12:34:21;;;;;;;4.30;1.80;;;22.90;99.90;;;;;;5033635;28;20049;-82
2023/08/14 12:36:46;;;;;;;3.70;1.90;;;23.00;99.90;;;;;;5032585;28;20083;-82
2023/08/14 12:39:12;;;;;;;6.35;1.88;;;23.00;99.90;;;;;;5033328;28;20491;-82
2023/08/14 12:41:38;;;;;;;7.25;2.28;;;23.00;99.90;;;;;;5033274;28;20389;-82
2023/08/14 12:44:04;;;;;;;9.50;2.65;;;23.10;99.90;;;;;;5032875;28;20025;-82
2023/08/14 12:46:30;;;;;;;5.72;1.98;;;23.10;99.90;;;;;;5033196;28;20599;-82